首页
METAR-TAF:

METAR-TAF

机场 :

亚特兰大, 喬治亞, 美国

纬度: 33-46-39N, 经度: 084-31-28W, 海拔: 256米

当前天气观测

该预报发布于13分钟前的09:53 UTC
风速5节,风向
温度 21°C
湿度 83%
气压 1017 hPa
能見度: 16.1公里
少量云层高于2600英尺
散云层高于3400英尺

METAR: KFTY 260953Z 10005KT 10SM FEW026 SCT034 21/18 A3004 RMK AO2 SLP162 T02110183

时间: 06:06 (10:06 UTC)

预报

该预报发布于3小时和30分钟前的06:36 UTC
预报有效从26日的 07点(UTC)到 27日的 06点(UTC)
风速8节,风向
能見度: 10公里
多云层高于1200英尺
从 26日的 1600点(UTC)
风速11节,风向
能見度: 10公里
多云层高于2500英尺
几率 30%
从 26日的 20点(UTC)到 26日的 24点(UTC)
能見度: 6.4公里
多云层高于1500英尺
阵雨
从 27日的 0100点(UTC)
风速10节,风向
能見度: 10公里
多云层高于1800英尺
附近有阵雨
从 27日的 0500点(UTC)
风速9节,风向
能見度: 10公里
多云层高于900英尺

TAF: KFTY 260636Z 2607/2706 09008KT P6SM BKN012 FM261600 10011KT P6SM BKN025 PROB30 2620/2624 4SM SHRA BKN015 FM270100 10010KT P6SM VCSH BKN018 FM270500 09009KT P6SM BKN009

超过4000个机场的气象观测和天气预报(METAR&TAF报告)。

可查询的气象台以黄色和红色小点在地图上表示。

将鼠标移到小点上方,可查看气象台名称。

然后点击查看天气观测和预报。

如需切换地图:点击带黑十字的绿色按钮放大地图;点击带横线的绿色按钮缩小地图;或者点击绿色箭头查看邻近地区的地图。


METAR-TAF: